createdAt,value
2019-01-17T00:07:40.270Z,8.93
2019-01-17T00:10:39.857Z,9.97
2019-01-17T00:13:46.032Z,9.33
2019-01-17T00:17:02.334Z,9.70
2019-01-17T00:19:54.748Z,9.40
2019-01-17T00:22:56.598Z,9.90
2019-01-17T00:25:56.116Z,10.17
2019-01-17T00:35:24.035Z,11.17
2019-01-17T00:38:24.095Z,11.27
2019-01-17T00:41:23.278Z,11.70
2019-01-17T00:44:26.132Z,11.33
2019-01-17T00:47:25.425Z,10.90
2019-01-17T00:50:25.421Z,11.47
2019-01-17T00:53:24.610Z,11.43
2019-01-17T00:56:30.401Z,11.37
2019-01-17T00:59:30.594Z,11.97
2019-01-17T01:02:30.544Z,12.00
2019-01-17T01:05:29.895Z,12.50
2019-01-17T01:08:29.799Z,12.37
2019-01-17T01:11:21.994Z,13.40
2019-01-17T01:14:38.002Z,12.63
2019-01-17T01:17:30.598Z,12.93
2019-01-17T01:20:29.991Z,12.60
2019-01-17T01:23:32.626Z,12.60
2019-01-17T01:26:32.194Z,13.07
2019-01-17T01:29:31.378Z,12.40
2019-01-17T01:32:29.956Z,13.00
2019-01-17T01:35:48.008Z,12.10
2019-01-17T01:41:55.519Z,11.07
2019-01-17T01:44:55.503Z,10.47
2019-01-17T01:47:36.408Z,9.97
2019-01-17T01:50:39.427Z,8.93
2019-01-17T01:53:21.492Z,9.83
2019-01-17T01:58:49.310Z,8.87
2019-01-17T02:01:31.807Z,9.47
2019-01-17T02:04:13.828Z,9.20
2019-01-17T02:07:01.450Z,9.53
2019-01-17T02:09:48.702Z,9.67
2019-01-17T02:15:37.541Z,11.07
2019-01-17T02:18:21.948Z,11.57
2019-01-17T02:24:16.168Z,12.33
2019-01-17T02:27:29.846Z,13.83
2019-01-17T02:32:36.977Z,13.73
2019-01-17T02:35:22.414Z,13.93
2019-01-17T02:38:11.605Z,14.23
2019-01-17T02:46:57.017Z,12.23
2019-01-17T02:58:07.392Z,14.33
2019-01-17T03:13:52.814Z,17.17
2019-01-17T03:27:19.305Z,16.70
2019-01-17T03:30:00.654Z,16.47
2019-01-17T03:32:40.909Z,16.13
2019-01-17T03:35:21.405Z,16.27
2019-01-17T03:38:03.704Z,16.77
2019-01-17T03:40:49.262Z,17.63
2019-01-17T03:43:30.640Z,16.40
2019-01-17T03:46:11.224Z,16.57
2019-01-17T03:48:56.390Z,16.73
2019-01-17T03:51:37.770Z,17.47
2019-01-17T03:54:17.843Z,17.90
2019-01-17T03:59:43.632Z,16.77
2019-01-17T04:02:27.635Z,17.10
2019-01-17T04:05:12.632Z,17.40
2019-01-17T04:07:54.424Z,16.90
2019-01-17T04:10:29.488Z,16.93
2019-01-17T04:13:34.429Z,16.63
2019-01-17T04:18:50.858Z,15.97
2019-01-17T04:24:14.371Z,16.43
2019-01-17T04:26:56.858Z,16.87
2019-01-17T04:29:36.769Z,16.37
2019-01-17T04:32:16.855Z,15.90
2019-01-17T04:35:00.857Z,16.60
2019-01-17T04:37:43.189Z,16.13
2019-01-17T04:40:23.342Z,15.47
2019-01-17T04:43:07.737Z,15.73
2019-01-17T04:45:48.365Z,15.00
2019-01-17T04:48:27.965Z,15.30
2019-01-17T04:51:09.467Z,14.27
2019-01-17T04:59:27.071Z,13.80
2019-01-17T05:07:42.871Z,13.20
2019-01-17T05:10:23.463Z,13.70
2019-01-17T05:13:04.685Z,13.87
2019-01-17T05:15:44.522Z,13.77
2019-01-17T05:21:10.881Z,13.20
2019-01-17T05:26:35.251Z,11.83
2019-01-17T05:29:15.485Z,12.20
2019-01-17T05:31:55.771Z,12.03
2019-01-17T05:34:23.418Z,11.77
2019-01-17T05:37:10.817Z,12.37
2019-01-17T05:39:57.869Z,10.93
2019-01-17T05:42:38.631Z,11.60
2019-01-17T05:45:18.754Z,11.37
2019-01-17T05:47:58.484Z,12.47
2019-01-17T05:53:24.333Z,12.43
2019-01-17T05:56:04.277Z,12.23
2019-01-17T05:58:47.754Z,11.83
2019-01-17T06:04:17.774Z,13.73
2019-01-17T06:06:57.777Z,14.50
2019-01-17T06:09:37.833Z,16.13
2019-01-17T06:12:21.812Z,16.80
2019-01-17T06:17:46.667Z,17.40
2019-01-17T06:20:30.489Z,17.23
2019-01-17T06:25:53.957Z,16.70
2019-01-17T06:31:17.060Z,14.73
2019-01-17T06:33:59.447Z,14.70
2019-01-17T06:36:43.448Z,14.17
2019-01-17T06:39:11.147Z,13.73
2019-01-17T06:42:20.638Z,12.53
2019-01-17T06:45:07.755Z,11.50
2019-01-17T06:47:47.885Z,9.90
2019-01-17T06:53:14.520Z,9.10
2019-01-17T07:04:16.619Z,10.07
2019-01-17T07:18:07.170Z,6.67
2019-01-17T07:36:42.452Z,6.93
2019-01-17T07:39:10.679Z,6.23
2019-01-17T07:41:44.571Z,6.03
2019-01-17T07:44:20.567Z,5.77
2019-01-17T07:46:47.954Z,6.70
2019-01-17T07:49:18.686Z,6.73
2019-01-17T07:51:46.589Z,7.00
2019-01-17T07:54:15.764Z,6.80
2019-01-17T07:56:43.434Z,6.80
2019-01-17T07:59:16.220Z,6.53
2019-01-17T08:01:48.898Z,7.17
2019-01-17T08:04:26.050Z,7.03
2019-01-17T08:06:58.008Z,7.17
2019-01-17T08:09:32.263Z,5.20
2019-01-17T08:12:05.129Z,5.63
2019-01-17T08:14:38.908Z,4.30
2019-01-17T08:17:41.401Z,4.17
2019-01-17T08:20:35.190Z,3.50
2019-01-17T08:22:53.911Z,3.50
2019-01-17T08:25:47.527Z,2.60
2019-01-17T08:28:31.069Z,2.30
2019-01-17T08:31:12.514Z,2.30
2019-01-17T08:34:28.155Z,2.60
2019-01-17T08:37:43.772Z,2.60
2019-01-17T08:40:22.147Z,2.50
2019-01-17T08:43:08.704Z,2.60
2019-01-17T08:46:01.117Z,2.30
2019-01-17T08:48:42.132Z,2.40
2019-01-17T08:51:58.735Z,2.87
2019-01-17T08:54:59.174Z,2.87
2019-01-17T08:57:43.669Z,3.10
2019-01-17T09:00:16.537Z,3.13
2019-01-17T09:03:01.302Z,3.77
2019-01-17T09:12:10.991Z,4.27
2019-01-17T09:14:40.955Z,3.50
2019-01-17T09:17:49.944Z,4.50
2019-01-17T09:20:22.054Z,4.07
2019-01-17T09:22:52.178Z,4.10
2019-01-17T09:25:26.448Z,4.10
2019-01-17T09:27:56.977Z,4.50
2019-01-17T09:30:30.890Z,3.80
2019-01-17T09:33:01.211Z,4.27
2019-01-17T09:35:34.022Z,4.53
2019-01-17T09:38:02.027Z,4.50
2019-01-17T09:40:37.047Z,4.60
2019-01-17T09:43:08.685Z,3.90
2019-01-17T09:45:36.378Z,4.40
2019-01-17T09:48:11.489Z,4.40
2019-01-17T09:50:41.146Z,4.27
2019-01-17T09:53:08.809Z,4.33
2019-01-17T09:55:37.348Z,4.53
2019-01-17T09:58:04.934Z,4.47
2019-01-17T10:00:35.833Z,4.17
2019-01-17T10:03:05.166Z,5.10
2019-01-17T10:05:32.850Z,5.70
2019-01-17T10:08:09.121Z,5.43
2019-01-17T10:10:36.951Z,5.87
2019-01-17T10:13:11.184Z,5.90
2019-01-17T10:15:50.400Z,5.93
2019-01-17T10:18:48.291Z,6.87
2019-01-17T10:21:57.191Z,6.93
2019-01-17T10:25:12.116Z,7.37
2019-01-17T10:28:26.778Z,7.70
2019-01-17T10:31:31.776Z,7.80
2019-01-17T10:35:04.051Z,6.93
2019-01-17T10:37:44.632Z,7.23
2019-01-17T10:40:50.638Z,8.00
2019-01-17T10:43:49.494Z,7.30
2019-01-17T10:46:51.202Z,7.83
2019-01-17T10:49:52.759Z,7.50
2019-01-17T10:53:30.132Z,7.27
2019-01-17T10:56:55.433Z,7.10
2019-01-17T10:59:52.452Z,6.20
2019-01-17T11:02:46.214Z,5.83
2019-01-17T11:05:49.146Z,5.53
2019-01-17T11:08:39.675Z,4.87
2019-01-17T11:11:30.415Z,4.87
2019-01-17T11:14:24.008Z,3.77
2019-01-17T11:17:41.269Z,2.97
2019-01-17T11:20:28.895Z,2.90
2019-01-17T11:23:34.308Z,2.30
2019-01-17T11:26:34.349Z,1.70
2019-01-17T11:29:30.107Z,1.80
2019-01-17T11:32:51.732Z,1.60
2019-01-17T11:36:06.664Z,1.60
2019-01-17T11:39:10.599Z,1.20
2019-01-17T11:42:08.081Z,1.00
2019-01-17T11:45:16.162Z,1.00
2019-01-17T11:48:21.764Z,1.10
2019-01-17T11:51:12.479Z,1.30
2019-01-17T11:54:23.405Z,0.90
2019-01-17T11:57:21.789Z,1.00
2019-01-17T12:00:20.558Z,0.80
2019-01-17T12:03:13.894Z,0.87
2019-01-17T12:05:41.556Z,1.10
2019-01-17T12:08:11.222Z,0.80
2019-01-17T12:10:41.834Z,1.03
2019-01-17T12:13:09.482Z,0.80
2019-01-17T12:15:37.084Z,0.90
2019-01-17T12:18:05.832Z,0.70
2019-01-17T12:20:33.482Z,0.60
2019-01-17T12:23:01.792Z,0.80
2019-01-17T12:25:29.452Z,0.70
2019-01-17T12:28:07.400Z,1.23
2019-01-17T12:30:35.074Z,1.00
2019-01-17T12:33:02.721Z,1.10
2019-01-17T12:35:30.378Z,1.13
2019-01-17T12:37:57.992Z,1.20
2019-01-17T12:40:25.640Z,1.13
2019-01-17T12:42:53.283Z,0.97
2019-01-17T12:45:21.072Z,1.00
2019-01-17T12:47:51.758Z,1.30
2019-01-17T12:50:19.535Z,0.97
2019-01-17T12:52:47.138Z,1.00
2019-01-17T12:55:15.013Z,1.10
2019-01-17T12:57:42.779Z,1.20
2019-01-17T13:00:14.130Z,1.20
2019-01-17T13:02:41.760Z,1.40
2019-01-17T13:05:09.451Z,1.40
2019-01-17T13:07:37.124Z,1.60
2019-01-17T13:10:06.090Z,1.67
2019-01-17T13:12:33.892Z,1.80
2019-01-17T13:15:01.530Z,1.13
2019-01-17T13:17:29.232Z,1.20
2019-01-17T13:19:56.781Z,1.40
2019-01-17T13:22:24.361Z,1.20
2019-01-17T13:24:51.976Z,1.53
2019-01-17T13:27:20.551Z,1.00
2019-01-17T13:29:48.226Z,1.30
2019-01-17T13:32:20.419Z,2.10
2019-01-17T13:34:53.164Z,1.30
2019-01-17T13:37:22.149Z,1.30
2019-01-17T13:39:54.200Z,1.20
2019-01-17T13:42:39.903Z,1.43
2019-01-17T13:45:10.107Z,1.00
2019-01-17T13:47:47.101Z,1.63
2019-01-17T13:54:08.691Z,2.30
2019-01-17T13:57:10.811Z,2.53
2019-01-17T14:00:01.431Z,2.50
2019-01-17T14:02:52.092Z,2.70
2019-01-17T14:05:37.614Z,2.20
2019-01-17T14:08:26.888Z,2.80
2019-01-17T14:11:04.277Z,2.60
2019-01-17T14:13:49.651Z,2.37
2019-01-17T14:16:23.125Z,2.43
2019-01-17T14:19:35.545Z,1.63
2019-01-17T14:22:05.691Z,1.70
2019-01-17T14:24:33.469Z,1.47
2019-01-17T14:27:17.171Z,1.70
2019-01-17T14:29:47.487Z,1.30
2019-01-17T14:32:21.111Z,1.87
2019-01-17T14:38:05.502Z,1.67
2019-01-17T14:40:39.631Z,1.47
2019-01-17T14:43:14.092Z,1.30
2019-01-17T14:45:46.627Z,1.40
2019-01-17T14:48:29.220Z,1.97
2019-01-17T14:51:14.523Z,1.93
2019-01-17T14:57:22.112Z,1.47
2019-01-17T14:59:57.977Z,2.20
2019-01-17T15:02:35.461Z,2.07
2019-01-17T15:09:21.164Z,2.43
2019-01-17T15:16:45.819Z,1.77
2019-01-17T15:20:13.204Z,2.10
2019-01-17T15:26:39.809Z,1.90
2019-01-17T15:29:23.400Z,2.17
2019-01-17T15:32:48.704Z,2.40
2019-01-17T15:36:13.553Z,1.73
2019-01-17T15:39:31.400Z,2.20
2019-01-17T15:46:37.039Z,2.27
2019-01-17T15:53:11.837Z,3.07
2019-01-17T16:17:20.800Z,2.27
2019-01-17T16:32:04.221Z,2.40
2019-01-17T16:38:32.937Z,2.90
2019-01-17T16:51:25.563Z,2.70
2019-01-17T17:44:34.723Z,2.97
2019-01-17T17:53:10.241Z,2.43
2019-01-17T18:12:58.014Z,1.93
2019-01-17T18:27:52.698Z,4.80
2019-01-17T19:11:06.094Z,4.90
2019-01-17T19:18:21.898Z,10.43
2019-01-17T19:25:26.949Z,5.00
2019-01-17T19:56:20.545Z,4.20
2019-01-17T19:59:58.641Z,4.20
2019-01-17T20:09:12.821Z,3.97
